sensor_id;sensor_type;location;lat;lon;timestamp;temperature;humidity
75281;HTU21D;63874;47.230;39.620;2024-02-21T00:01:30;-3.06;69.49
75281;HTU21D;63874;47.230;39.620;2024-02-21T00:03:55;-3.12;69.26
75281;HTU21D;63874;47.230;39.620;2024-02-21T00:06:21;-3.17;69.23
75281;HTU21D;63874;47.230;39.620;2024-02-21T00:08:47;-3.22;69.45
75281;HTU21D;63874;47.230;39.620;2024-02-21T00:11:13;-3.25;69.42
75281;HTU21D;63874;47.230;39.620;2024-02-21T00:13:38;-3.25;69.57
75281;HTU21D;63874;47.230;39.620;2024-02-21T00:16:04;-3.22;69.45
75281;HTU21D;63874;47.230;39.620;2024-02-21T00:18:30;-3.20;69.44
75281;HTU21D;63874;47.230;39.620;2024-02-21T00:20:56;-3.16;69.44
75281;HTU21D;63874;47.230;39.620;2024-02-21T00:23:21;-3.10;69.36
75281;HTU21D;63874;47.230;39.620;2024-02-21T00:25:47;-3.10;69.29
75281;HTU21D;63874;47.230;39.620;2024-02-21T00:28:13;-3.05;69.55
75281;HTU21D;63874;47.230;39.620;2024-02-21T00:30:38;-3.04;69.14
75281;HTU21D;63874;47.230;39.620;2024-02-21T00:33:04;-3.03;69.24
75281;HTU21D;63874;47.230;39.620;2024-02-21T00:35:30;-3.05;69.32
75281;HTU21D;63874;47.230;39.620;2024-02-21T00:37:56;-3.07;69.52
75281;HTU21D;63874;47.230;39.620;2024-02-21T00:40:22;-3.06;69.39
75281;HTU21D;63874;47.230;39.620;2024-02-21T00:42:48;-3.05;69.38
75281;HTU21D;63874;47.230;39.620;2024-02-21T00:45:14;-3.04;69.55
75281;HTU21D;63874;47.230;39.620;2024-02-21T00:47:40;-3.05;69.30
75281;HTU21D;63874;47.230;39.620;2024-02-21T00:50:06;-3.04;69.41
75281;HTU21D;63874;47.230;39.620;2024-02-21T00:52:32;-3.04;69.44
75281;HTU21D;63874;47.230;39.620;2024-02-21T00:54:58;-3.10;69.38
75281;HTU21D;63874;47.230;39.620;2024-02-21T00:57:25;-3.10;69.41
75281;HTU21D;63874;47.230;39.620;2024-02-21T00:59:50;-3.08;69.32
75281;HTU21D;63874;47.230;39.620;2024-02-21T01:02:16;-3.04;69.33
75281;HTU21D;63874;47.230;39.620;2024-02-21T01:04:42;-3.03;69.21
75281;HTU21D;63874;47.230;39.620;2024-02-21T01:07:07;-2.98;69.13
75281;HTU21D;63874;47.230;39.620;2024-02-21T01:09:33;-2.97;69.04
75281;HTU21D;63874;47.230;39.620;2024-02-21T01:11:59;-2.95;68.99
75281;HTU21D;63874;47.230;39.620;2024-02-21T01:14:24;-2.96;69.01
75281;HTU21D;63874;47.230;39.620;2024-02-21T01:16:50;-3.00;68.88
75281;HTU21D;63874;47.230;39.620;2024-02-21T01:19:16;-3.00;68.93
75281;HTU21D;63874;47.230;39.620;2024-02-21T01:21:41;-3.00;68.96
75281;HTU21D;63874;47.230;39.620;2024-02-21T01:24:07;-3.00;68.97
75281;HTU21D;63874;47.230;39.620;2024-02-21T01:26:33;-3.00;69.04
75281;HTU21D;63874;47.230;39.620;2024-02-21T01:28:59;-2.95;69.19
75281;HTU21D;63874;47.230;39.620;2024-02-21T01:31:25;-2.95;69.05
75281;HTU21D;63874;47.230;39.620;2024-02-21T01:33:50;-3.00;68.96
75281;HTU21D;63874;47.230;39.620;2024-02-21T01:36:16;-3.02;68.98
75281;HTU21D;63874;47.230;39.620;2024-02-21T01:38:42;-3.01;69.02
75281;HTU21D;63874;47.230;39.620;2024-02-21T01:41:07;-3.02;69.07
75281;HTU21D;63874;47.230;39.620;2024-02-21T01:43:33;-2.96;69.03
75281;HTU21D;63874;47.230;39.620;2024-02-21T01:45:59;-2.90;69.17
75281;HTU21D;63874;47.230;39.620;2024-02-21T01:48:25;-2.90;69.07
75281;HTU21D;63874;47.230;39.620;2024-02-21T01:50:51;-2.92;69.02
75281;HTU21D;63874;47.230;39.620;2024-02-21T01:53:21;-2.89;69.28
75281;HTU21D;63874;47.230;39.620;2024-02-21T01:55:48;-2.93;69.08
75281;HTU21D;63874;47.230;39.620;2024-02-21T01:58:14;-2.95;69.12
75281;HTU21D;63874;47.230;39.620;2024-02-21T02:00:43;-2.92;69.12
75281;HTU21D;63874;47.230;39.620;2024-02-21T02:03:10;-2.92;69.14
75281;HTU21D;63874;47.230;39.620;2024-02-21T02:05:45;-2.90;69.09
75281;HTU21D;63874;47.230;39.620;2024-02-21T02:08:20;-2.89;69.08
75281;HTU21D;63874;47.230;39.620;2024-02-21T02:10:47;-2.87;69.13
75281;HTU21D;63874;47.230;39.620;2024-02-21T02:13:13;-2.88;69.13
75281;HTU21D;63874;47.230;39.620;2024-02-21T02:15:43;-2.88;69.16
75281;HTU21D;63874;47.230;39.620;2024-02-21T02:18:09;-2.84;69.38
75281;HTU21D;63874;47.230;39.620;2024-02-21T02:20:35;-2.81;69.49
75281;HTU21D;63874;47.230;39.620;2024-02-21T02:25:34;-2.87;69.39
75281;HTU21D;63874;47.230;39.620;2024-02-21T02:28:00;-2.87;69.52
75281;HTU21D;63874;47.230;39.620;2024-02-21T02:30:25;-2.88;69.36
75281;HTU21D;63874;47.230;39.620;2024-02-21T02:32:51;-2.88;69.37
75281;HTU21D;63874;47.230;39.620;2024-02-21T02:35:17;-2.88;69.31
75281;HTU21D;63874;47.230;39.620;2024-02-21T02:37:49;-2.89;69.31
75281;HTU21D;63874;47.230;39.620;2024-02-21T02:40:15;-2.88;69.29
75281;HTU21D;63874;47.230;39.620;2024-02-21T02:42:40;-2.89;69.30
75281;HTU21D;63874;47.230;39.620;2024-02-21T02:45:06;-2.94;69.26
75281;HTU21D;63874;47.230;39.620;2024-02-21T02:47:32;-2.93;69.52
75281;HTU21D;63874;47.230;39.620;2024-02-21T02:50:00;-2.92;69.52
75281;HTU21D;63874;47.230;39.620;2024-02-21T02:52:25;-2.93;69.54
75281;HTU21D;63874;47.230;39.620;2024-02-21T02:54:51;-2.95;69.60
75281;HTU21D;63874;47.230;39.620;2024-02-21T02:57:17;-2.95;69.68
75281;HTU21D;63874;47.230;39.620;2024-02-21T02:59:47;-2.97;69.64
75281;HTU21D;63874;47.230;39.620;2024-02-21T03:02:12;-2.93;69.67
75281;HTU21D;63874;47.230;39.620;2024-02-21T03:04:39;-2.93;69.66
75281;HTU21D;63874;47.230;39.620;2024-02-21T03:07:05;-2.91;69.65
75281;HTU21D;63874;47.230;39.620;2024-02-21T03:09:31;-2.90;69.74
75281;HTU21D;63874;47.230;39.620;2024-02-21T03:11:57;-2.89;69.75
75281;HTU21D;63874;47.230;39.620;2024-02-21T03:14:30;-2.88;69.76
75281;HTU21D;63874;47.230;39.620;2024-02-21T03:16:57;-2.91;69.80
75281;HTU21D;63874;47.230;39.620;2024-02-21T03:19:23;-2.92;69.80
75281;HTU21D;63874;47.230;39.620;2024-02-21T03:21:49;-2.92;69.75
75281;HTU21D;63874;47.230;39.620;2024-02-21T03:24:20;-2.90;69.87
75281;HTU21D;63874;47.230;39.620;2024-02-21T03:26:46;-2.90;69.82
75281;HTU21D;63874;47.230;39.620;2024-02-21T03:29:13;-2.87;70.00
75281;HTU21D;63874;47.230;39.620;2024-02-21T03:31:39;-2.82;70.08
75281;HTU21D;63874;47.230;39.620;2024-02-21T03:34:05;-2.77;70.10
75281;HTU21D;63874;47.230;39.620;2024-02-21T03:36:31;-2.76;70.18
75281;HTU21D;63874;47.230;39.620;2024-02-21T03:38:57;-2.77;70.05
75281;HTU21D;63874;47.230;39.620;2024-02-21T03:41:22;-2.77;70.10
75281;HTU21D;63874;47.230;39.620;2024-02-21T03:43:48;-2.75;70.11
75281;HTU21D;63874;47.230;39.620;2024-02-21T03:46:15;-2.76;70.08
75281;HTU21D;63874;47.230;39.620;2024-02-21T03:48:41;-2.77;70.11
75281;HTU21D;63874;47.230;39.620;2024-02-21T03:51:06;-2.75;70.19
75281;HTU21D;63874;47.230;39.620;2024-02-21T03:53:32;-2.73;70.24
75281;HTU21D;63874;47.230;39.620;2024-02-21T03:56:00;-2.65;70.42
75281;HTU21D;63874;47.230;39.620;2024-02-21T03:58:28;-2.63;70.40
75281;HTU21D;63874;47.230;39.620;2024-02-21T04:00:54;-2.65;70.21
75281;HTU21D;63874;47.230;39.620;2024-02-21T04:03:19;-2.68;70.23
75281;HTU21D;63874;47.230;39.620;2024-02-21T04:05:45;-2.72;70.23
75281;HTU21D;63874;47.230;39.620;2024-02-21T04:08:11;-2.72;70.30
75281;HTU21D;63874;47.230;39.620;2024-02-21T04:10:36;-2.73;70.26
75281;HTU21D;63874;47.230;39.620;2024-02-21T04:13:03;-2.69;70.38
75281;HTU21D;63874;47.230;39.620;2024-02-21T04:15:29;-2.66;70.35
75281;HTU21D;63874;47.230;39.620;2024-02-21T04:17:54;-2.65;70.32
75281;HTU21D;63874;47.230;39.620;2024-02-21T04:20:20;-2.66;70.45
75281;HTU21D;63874;47.230;39.620;2024-02-21T04:22:46;-2.66;70.36
75281;HTU21D;63874;47.230;39.620;2024-02-21T04:25:12;-2.68;70.44
75281;HTU21D;63874;47.230;39.620;2024-02-21T04:27:38;-2.67;70.39
75281;HTU21D;63874;47.230;39.620;2024-02-21T04:30:04;-2.67;70.51
75281;HTU21D;63874;47.230;39.620;2024-02-21T04:32:30;-2.67;70.62
75281;HTU21D;63874;47.230;39.620;2024-02-21T04:34:56;-2.67;70.58
75281;HTU21D;63874;47.230;39.620;2024-02-21T04:37:21;-2.66;70.55
75281;HTU21D;63874;47.230;39.620;2024-02-21T04:39:48;-2.63;70.71
75281;HTU21D;63874;47.230;39.620;2024-02-21T04:42:14;-2.61;70.54
75281;HTU21D;63874;47.230;39.620;2024-02-21T04:44:40;-2.61;70.58
75281;HTU21D;63874;47.230;39.620;2024-02-21T04:47:06;-2.59;70.60
75281;HTU21D;63874;47.230;39.620;2024-02-21T04:49:32;-2.57;70.61
75281;HTU21D;63874;47.230;39.620;2024-02-21T04:51:57;-2.50;70.63
75281;HTU21D;63874;47.230;39.620;2024-02-21T04:54:23;-2.45;70.70
75281;HTU21D;63874;47.230;39.620;2024-02-21T04:56:49;-2.38;70.55
75281;HTU21D;63874;47.230;39.620;2024-02-21T04:59:15;-2.35;70.38
75281;HTU21D;63874;47.230;39.620;2024-02-21T05:01:40;-2.32;70.35
75281;HTU21D;63874;47.230;39.620;2024-02-21T05:04:06;-2.28;70.30
75281;HTU21D;63874;47.230;39.620;2024-02-21T05:06:31;-2.21;70.29
75281;HTU21D;63874;47.230;39.620;2024-02-21T05:08:57;-2.17;70.14
75281;HTU21D;63874;47.230;39.620;2024-02-21T05:11:23;-2.15;70.03
75281;HTU21D;63874;47.230;39.620;2024-02-21T05:13:50;-2.15;69.99
75281;HTU21D;63874;47.230;39.620;2024-02-21T05:16:15;-2.12;69.99
75281;HTU21D;63874;47.230;39.620;2024-02-21T05:18:41;-2.05;70.00
75281;HTU21D;63874;47.230;39.620;2024-02-21T05:21:08;-2.00;69.97
75281;HTU21D;63874;47.230;39.620;2024-02-21T05:23:33;-1.91;69.86
75281;HTU21D;63874;47.230;39.620;2024-02-21T05:25:59;-1.86;69.76
75281;HTU21D;63874;47.230;39.620;2024-02-21T05:28:25;-1.79;69.72
75281;HTU21D;63874;47.230;39.620;2024-02-21T05:30:51;-1.77;69.49
75281;HTU21D;63874;47.230;39.620;2024-02-21T05:33:16;-1.79;69.52
75281;HTU21D;63874;47.230;39.620;2024-02-21T05:35:50;-1.74;69.61
75281;HTU21D;63874;47.230;39.620;2024-02-21T05:38:15;-1.70;69.58
75281;HTU21D;63874;47.230;39.620;2024-02-21T05:40:41;-1.63;69.60
75281;HTU21D;63874;47.230;39.620;2024-02-21T05:43:07;-1.54;69.45
75281;HTU21D;63874;47.230;39.620;2024-02-21T05:45:34;-1.54;69.26
75281;HTU21D;63874;47.230;39.620;2024-02-21T05:48:00;-1.49;69.32
75281;HTU21D;63874;47.230;39.620;2024-02-21T05:50:25;-1.45;69.26
75281;HTU21D;63874;47.230;39.620;2024-02-21T05:52:52;-1.43;69.15
75281;HTU21D;63874;47.230;39.620;2024-02-21T05:55:18;-1.35;69.26
75281;HTU21D;63874;47.230;39.620;2024-02-21T05:57:44;-1.27;69.20
75281;HTU21D;63874;47.230;39.620;2024-02-21T06:00:10;-1.18;69.04
75281;HTU21D;63874;47.230;39.620;2024-02-21T06:02:38;-1.15;68.81
75281;HTU21D;63874;47.230;39.620;2024-02-21T06:05:05;-1.13;68.85
75281;HTU21D;63874;47.230;39.620;2024-02-21T06:07:33;-1.05;68.91
75281;HTU21D;63874;47.230;39.620;2024-02-21T06:09:59;-0.95;68.77
75281;HTU21D;63874;47.230;39.620;2024-02-21T06:12:25;-0.88;68.55
75281;HTU21D;63874;47.230;39.620;2024-02-21T06:14:51;-0.81;68.42
75281;HTU21D;63874;47.230;39.620;2024-02-21T06:17:17;-0.75;68.24
75281;HTU21D;63874;47.230;39.620;2024-02-21T06:19:43;-0.67;68.27
75281;HTU21D;63874;47.230;39.620;2024-02-21T06:22:09;-0.57;68.04
75281;HTU21D;63874;47.230;39.620;2024-02-21T06:24:35;-0.50;67.92
75281;HTU21D;63874;47.230;39.620;2024-02-21T06:27:04;-0.44;67.79
75281;HTU21D;63874;47.230;39.620;2024-02-21T06:29:33;-0.40;67.46
75281;HTU21D;63874;47.230;39.620;2024-02-21T06:32:00;-0.36;67.62
75281;HTU21D;63874;47.230;39.620;2024-02-21T06:34:25;-0.27;66.80
75281;HTU21D;63874;47.230;39.620;2024-02-21T06:36:51;-0.25;67.17
75281;HTU21D;63874;47.230;39.620;2024-02-21T06:39:17;-0.24;66.78
75281;HTU21D;63874;47.230;39.620;2024-02-21T06:41:43;-0.26;66.90
75281;HTU21D;63874;47.230;39.620;2024-02-21T06:44:09;-0.22;67.09
75281;HTU21D;63874;47.230;39.620;2024-02-21T06:46:35;-0.17;66.60
75281;HTU21D;63874;47.230;39.620;2024-02-21T06:49:01;-0.17;66.71
75281;HTU21D;63874;47.230;39.620;2024-02-21T06:51:27;-0.17;66.81
75281;HTU21D;63874;47.230;39.620;2024-02-21T06:53:53;-0.11;66.82
75281;HTU21D;63874;47.230;39.620;2024-02-21T06:56:19;-0.07;66.79
75281;HTU21D;63874;47.230;39.620;2024-02-21T06:58:45;0.01;66.20
75281;HTU21D;63874;47.230;39.620;2024-02-21T07:01:11;-0.01;66.43
75281;HTU21D;63874;47.230;39.620;2024-02-21T07:03:37;-0.00;66.56
75281;HTU21D;63874;47.230;39.620;2024-02-21T07:06:05;0.08;66.46
75281;HTU21D;63874;47.230;39.620;2024-02-21T07:08:33;0.16;65.88
75281;HTU21D;63874;47.230;39.620;2024-02-21T07:10:59;0.18;66.27
75281;HTU21D;63874;47.230;39.620;2024-02-21T07:13:25;0.22;65.75
75281;HTU21D;63874;47.230;39.620;2024-02-21T07:15:50;0.24;65.91
75281;HTU21D;63874;47.230;39.620;2024-02-21T07:18:16;0.27;65.66
75281;HTU21D;63874;47.230;39.620;2024-02-21T07:20:42;0.30;65.50
75281;HTU21D;63874;47.230;39.620;2024-02-21T07:23:08;0.27;65.15
75281;HTU21D;63874;47.230;39.620;2024-02-21T07:25:34;0.30;65.76
75281;HTU21D;63874;47.230;39.620;2024-02-21T07:28:00;0.37;65.28
75281;HTU21D;63874;47.230;39.620;2024-02-21T07:30:25;0.44;65.65
75281;HTU21D;63874;47.230;39.620;2024-02-21T07:32:51;0.52;64.95
75281;HTU21D;63874;47.230;39.620;2024-02-21T07:35:17;0.60;65.43
75281;HTU21D;63874;47.230;39.620;2024-02-21T07:37:43;0.75;65.34
75281;HTU21D;63874;47.230;39.620;2024-02-21T07:40:12;0.79;63.61
75281;HTU21D;63874;47.230;39.620;2024-02-21T07:42:38;0.73;64.35
75281;HTU21D;63874;47.230;39.620;2024-02-21T07:45:04;0.77;63.17
75281;HTU21D;63874;47.230;39.620;2024-02-21T07:47:30;0.73;62.30
75281;HTU21D;63874;47.230;39.620;2024-02-21T07:49:56;0.63;62.87
75281;HTU21D;63874;47.230;39.620;2024-02-21T07:52:22;0.62;62.77
75281;HTU21D;63874;47.230;39.620;2024-02-21T07:54:47;0.75;63.31
75281;HTU21D;63874;47.230;39.620;2024-02-21T07:57:13;0.89;63.27
75281;HTU21D;63874;47.230;39.620;2024-02-21T07:59:41;0.99;63.17
75281;HTU21D;63874;47.230;39.620;2024-02-21T08:02:07;1.05;62.63
75281;HTU21D;63874;47.230;39.620;2024-02-21T08:04:33;1.09;62.40
75281;HTU21D;63874;47.230;39.620;2024-02-21T08:06:59;1.06;61.15
75281;HTU21D;63874;47.230;39.620;2024-02-21T08:09:28;0.99;61.29
75281;HTU21D;63874;47.230;39.620;2024-02-21T08:11:54;1.06;61.44
75281;HTU21D;63874;47.230;39.620;2024-02-21T08:14:20;1.12;61.72
75281;HTU21D;63874;47.230;39.620;2024-02-21T08:16:50;1.19;62.00
75281;HTU21D;63874;47.230;39.620;2024-02-21T08:19:16;1.31;61.79
75281;HTU21D;63874;47.230;39.620;2024-02-21T08:21:42;1.38;61.57
75281;HTU21D;63874;47.230;39.620;2024-02-21T08:24:08;1.45;60.19
75281;HTU21D;63874;47.230;39.620;2024-02-21T08:26:34;1.46;60.53
75281;HTU21D;63874;47.230;39.620;2024-02-21T08:29:01;1.56;61.12
75281;HTU21D;63874;47.230;39.620;2024-02-21T08:31:27;1.72;60.81
75281;HTU21D;63874;47.230;39.620;2024-02-21T08:34:00;1.88;60.25
75281;HTU21D;63874;47.230;39.620;2024-02-21T08:36:33;2.02;59.61
75281;HTU21D;63874;47.230;39.620;2024-02-21T08:38:59;2.13;58.84
75281;HTU21D;63874;47.230;39.620;2024-02-21T08:41:25;2.19;58.72
75281;HTU21D;63874;47.230;39.620;2024-02-21T08:43:51;2.23;58.83
75281;HTU21D;63874;47.230;39.620;2024-02-21T08:46:17;2.30;59.17
75281;HTU21D;63874;47.230;39.620;2024-02-21T08:48:43;2.45;58.13
75281;HTU21D;63874;47.230;39.620;2024-02-21T08:51:11;2.53;58.30
75281;HTU21D;63874;47.230;39.620;2024-02-21T08:53:37;2.57;58.43
75281;HTU21D;63874;47.230;39.620;2024-02-21T08:56:03;2.59;58.32
75281;HTU21D;63874;47.230;39.620;2024-02-21T08:58:29;2.67;57.87
75281;HTU21D;63874;47.230;39.620;2024-02-21T09:00:55;2.76;56.17
75281;HTU21D;63874;47.230;39.620;2024-02-21T09:03:20;2.78;56.48
75281;HTU21D;63874;47.230;39.620;2024-02-21T09:05:46;2.89;55.70
75281;HTU21D;63874;47.230;39.620;2024-02-21T09:08:12;2.99;55.65
75281;HTU21D;63874;47.230;39.620;2024-02-21T09:10:39;3.02;55.37
75281;HTU21D;63874;47.230;39.620;2024-02-21T09:13:05;3.03;55.36
75281;HTU21D;63874;47.230;39.620;2024-02-21T09:15:31;3.05;55.99
75281;HTU21D;63874;47.230;39.620;2024-02-21T09:17:57;3.10;56.49
75281;HTU21D;63874;47.230;39.620;2024-02-21T09:20:22;3.16;56.53
75281;HTU21D;63874;47.230;39.620;2024-02-21T09:22:48;3.19;55.89
75281;HTU21D;63874;47.230;39.620;2024-02-21T09:25:14;3.12;55.23
75281;HTU21D;63874;47.230;39.620;2024-02-21T09:27:40;2.98;56.02
75281;HTU21D;63874;47.230;39.620;2024-02-21T09:30:06;2.96;55.60
75281;HTU21D;63874;47.230;39.620;2024-02-21T09:32:32;2.93;56.02
75281;HTU21D;63874;47.230;39.620;2024-02-21T09:34:58;2.98;56.14
75281;HTU21D;63874;47.230;39.620;2024-02-21T09:37:24;2.97;54.37
75281;HTU21D;63874;47.230;39.620;2024-02-21T09:39:49;2.83;54.90
75281;HTU21D;63874;47.230;39.620;2024-02-21T09:42:20;2.67;55.20
75281;HTU21D;63874;47.230;39.620;2024-02-21T09:44:45;2.46;55.79
75281;HTU21D;63874;47.230;39.620;2024-02-21T09:47:19;2.37;56.11
75281;HTU21D;63874;47.230;39.620;2024-02-21T09:49:47;2.31;56.42
75281;HTU21D;63874;47.230;39.620;2024-02-21T09:52:13;2.35;56.62
75281;HTU21D;63874;47.230;39.620;2024-02-21T09:54:40;2.46;56.65
75281;HTU21D;63874;47.230;39.620;2024-02-21T09:57:07;2.59;56.77
75281;HTU21D;63874;47.230;39.620;2024-02-21T09:59:33;2.75;55.82
75281;HTU21D;63874;47.230;39.620;2024-02-21T10:01:59;2.75;54.50
75281;HTU21D;63874;47.230;39.620;2024-02-21T10:04:26;2.61;54.75
75281;HTU21D;63874;47.230;39.620;2024-02-21T10:06:53;2.50;54.90
75281;HTU21D;63874;47.230;39.620;2024-02-21T10:09:25;2.43;55.60
75281;HTU21D;63874;47.230;39.620;2024-02-21T10:11:54;2.32;55.49
75281;HTU21D;63874;47.230;39.620;2024-02-21T10:14:20;2.31;55.97
75281;HTU21D;63874;47.230;39.620;2024-02-21T10:16:56;2.52;56.18
75281;HTU21D;63874;47.230;39.620;2024-02-21T10:19:22;2.74;55.58
75281;HTU21D;63874;47.230;39.620;2024-02-21T10:22:01;2.88;55.07
75281;HTU21D;63874;47.230;39.620;2024-02-21T10:24:29;2.91;55.14
75281;HTU21D;63874;47.230;39.620;2024-02-21T10:27:05;2.99;55.00
75281;HTU21D;63874;47.230;39.620;2024-02-21T10:29:33;2.97;54.34
75281;HTU21D;63874;47.230;39.620;2024-02-21T10:32:09;2.90;55.06
75281;HTU21D;63874;47.230;39.620;2024-02-21T10:34:36;2.84;55.19
75281;HTU21D;63874;47.230;39.620;2024-02-21T10:37:02;2.73;55.70
75281;HTU21D;63874;47.230;39.620;2024-02-21T10:39:29;2.75;55.45
75281;HTU21D;63874;47.230;39.620;2024-02-21T10:41:56;2.58;55.68
75281;HTU21D;63874;47.230;39.620;2024-02-21T10:44:24;2.44;56.09
75281;HTU21D;63874;47.230;39.620;2024-02-21T10:46:50;2.28;56.48
75281;HTU21D;63874;47.230;39.620;2024-02-21T10:54:58;1.88;57.58
75281;HTU21D;63874;47.230;39.620;2024-02-21T10:57:26;1.82;57.88
75281;HTU21D;63874;47.230;39.620;2024-02-21T10:59:53;1.79;58.11
75281;HTU21D;63874;47.230;39.620;2024-02-21T11:02:20;1.80;58.20
75281;HTU21D;63874;47.230;39.620;2024-02-21T11:04:46;1.70;58.27
75281;HTU21D;63874;47.230;39.620;2024-02-21T11:07:12;1.54;58.53
75281;HTU21D;63874;47.230;39.620;2024-02-21T11:09:38;1.41;58.94
75281;HTU21D;63874;47.230;39.620;2024-02-21T11:12:04;1.35;59.27
75281;HTU21D;63874;47.230;39.620;2024-02-21T11:14:30;1.32;59.51
75281;HTU21D;63874;47.230;39.620;2024-02-21T11:16:58;1.33;59.54
75281;HTU21D;63874;47.230;39.620;2024-02-21T11:19:27;1.29;59.77
75281;HTU21D;63874;47.230;39.620;2024-02-21T11:21:54;1.32;60.05
75281;HTU21D;63874;47.230;39.620;2024-02-21T11:24:26;1.38;60.22
75281;HTU21D;63874;47.230;39.620;2024-02-21T11:26:54;1.47;60.06
75281;HTU21D;63874;47.230;39.620;2024-02-21T11:29:23;1.52;59.97
75281;HTU21D;63874;47.230;39.620;2024-02-21T11:31:50;1.58;60.06
75281;HTU21D;63874;47.230;39.620;2024-02-21T11:34:20;1.66;59.96
75281;HTU21D;63874;47.230;39.620;2024-02-21T11:36:46;1.71;59.96
75281;HTU21D;63874;47.230;39.620;2024-02-21T11:39:12;1.76;59.78
75281;HTU21D;63874;47.230;39.620;2024-02-21T11:41:38;1.70;59.48
75281;HTU21D;63874;47.230;39.620;2024-02-21T11:44:03;1.56;59.79
75281;HTU21D;63874;47.230;39.620;2024-02-21T11:46:29;1.50;60.03
75281;HTU21D;63874;47.230;39.620;2024-02-21T11:48:55;1.56;60.25
75281;HTU21D;63874;47.230;39.620;2024-02-21T11:51:25;1.63;60.19
75281;HTU21D;63874;47.230;39.620;2024-02-21T11:53:52;1.63;60.18
75281;HTU21D;63874;47.230;39.620;2024-02-21T11:56:18;1.64;59.83
75281;HTU21D;63874;47.230;39.620;2024-02-21T11:58:45;1.51;59.94
75281;HTU21D;63874;47.230;39.620;2024-02-21T12:01:11;1.47;60.31
75281;HTU21D;63874;47.230;39.620;2024-02-21T12:03:37;1.46;60.43
75281;HTU21D;63874;47.230;39.620;2024-02-21T12:06:02;1.45;60.52
75281;HTU21D;63874;47.230;39.620;2024-02-21T12:08:40;1.46;60.65
75281;HTU21D;63874;47.230;39.620;2024-02-21T12:11:15;1.42;60.61
75281;HTU21D;63874;47.230;39.620;2024-02-21T12:13:41;1.34;60.70
75281;HTU21D;63874;47.230;39.620;2024-02-21T12:16:07;1.29;60.86
75281;HTU21D;63874;47.230;39.620;2024-02-21T12:18:33;1.27;61.11
75281;HTU21D;63874;47.230;39.620;2024-02-21T12:20:59;1.34;61.28
75281;HTU21D;63874;47.230;39.620;2024-02-21T12:23:27;1.34;61.27
75281;HTU21D;63874;47.230;39.620;2024-02-21T12:25:52;1.31;61.25
75281;HTU21D;63874;47.230;39.620;2024-02-21T12:28:21;1.28;61.47
75281;HTU21D;63874;47.230;39.620;2024-02-21T12:30:47;1.29;61.63
75281;HTU21D;63874;47.230;39.620;2024-02-21T12:33:13;1.32;61.82
75281;HTU21D;63874;47.230;39.620;2024-02-21T12:35:39;1.29;61.83
75281;HTU21D;63874;47.230;39.620;2024-02-21T12:38:05;1.26;62.01
75281;HTU21D;63874;47.230;39.620;2024-02-21T12:40:31;1.22;62.12
75281;HTU21D;63874;47.230;39.620;2024-02-21T12:43:01;1.17;62.41
75281;HTU21D;63874;47.230;39.620;2024-02-21T12:45:28;1.14;62.69
75281;HTU21D;63874;47.230;39.620;2024-02-21T12:47:54;1.14;63.11
75281;HTU21D;63874;47.230;39.620;2024-02-21T12:50:20;1.07;62.79
75281;HTU21D;63874;47.230;39.620;2024-02-21T12:52:45;1.06;63.32
75281;HTU21D;63874;47.230;39.620;2024-02-21T12:55:11;0.97;63.31
75281;HTU21D;63874;47.230;39.620;2024-02-21T12:57:39;0.90;63.43
75281;HTU21D;63874;47.230;39.620;2024-02-21T13:00:05;0.86;63.52
75281;HTU21D;63874;47.230;39.620;2024-02-21T13:02:34;0.86;63.64
75281;HTU21D;63874;47.230;39.620;2024-02-21T13:04:59;0.86;63.94
75281;HTU21D;63874;47.230;39.620;2024-02-21T13:07:27;0.82;63.78
75281;HTU21D;63874;47.230;39.620;2024-02-21T13:09:53;0.81;63.93
75281;HTU21D;63874;47.230;39.620;2024-02-21T13:12:19;0.76;64.08
75281;HTU21D;63874;47.230;39.620;2024-02-21T13:14:45;0.75;64.59
75281;HTU21D;63874;47.230;39.620;2024-02-21T13:17:11;0.73;64.44
75281;HTU21D;63874;47.230;39.620;2024-02-21T13:19:37;0.68;64.65
75281;HTU21D;63874;47.230;39.620;2024-02-21T13:22:03;0.69;65.22
75281;HTU21D;63874;47.230;39.620;2024-02-21T13:24:29;0.65;64.83
75281;HTU21D;63874;47.230;39.620;2024-02-21T13:26:55;0.62;65.40
75281;HTU21D;63874;47.230;39.620;2024-02-21T13:29:21;0.61;66.15
75281;HTU21D;63874;47.230;39.620;2024-02-21T13:31:46;0.52;65.74
75281;HTU21D;63874;47.230;39.620;2024-02-21T13:34:12;0.45;66.40
75281;HTU21D;63874;47.230;39.620;2024-02-21T13:36:38;0.37;66.37
75281;HTU21D;63874;47.230;39.620;2024-02-21T13:39:03;0.32;67.20
75281;HTU21D;63874;47.230;39.620;2024-02-21T13:41:34;0.29;66.97
75281;HTU21D;63874;47.230;39.620;2024-02-21T13:44:00;0.29;67.19
75281;HTU21D;63874;47.230;39.620;2024-02-21T13:46:26;0.31;67.65
75281;HTU21D;63874;47.230;39.620;2024-02-21T13:48:53;0.32;67.05
75281;HTU21D;63874;47.230;39.620;2024-02-21T13:51:19;0.31;67.37
75281;HTU21D;63874;47.230;39.620;2024-02-21T13:53:45;0.30;67.74
75281;HTU21D;63874;47.230;39.620;2024-02-21T13:56:11;0.28;67.88
75281;HTU21D;63874;47.230;39.620;2024-02-21T13:58:36;0.22;68.12
75281;HTU21D;63874;47.230;39.620;2024-02-21T14:01:02;0.15;68.26
75281;HTU21D;63874;47.230;39.620;2024-02-21T14:03:28;0.10;68.72
75281;HTU21D;63874;47.230;39.620;2024-02-21T14:05:54;0.06;68.75
75281;HTU21D;63874;47.230;39.620;2024-02-21T14:08:20;-0.00;69.30
75281;HTU21D;63874;47.230;39.620;2024-02-21T14:10:45;-0.06;69.08
75281;HTU21D;63874;47.230;39.620;2024-02-21T14:13:12;-0.07;69.61
75281;HTU21D;63874;47.230;39.620;2024-02-21T14:15:39;-0.08;70.29
75281;HTU21D;63874;47.230;39.620;2024-02-21T14:18:06;-0.14;70.06
75281;HTU21D;63874;47.230;39.620;2024-02-21T14:20:34;-0.15;70.71
75281;HTU21D;63874;47.230;39.620;2024-02-21T14:23:00;-0.19;70.42
75281;HTU21D;63874;47.230;39.620;2024-02-21T14:25:26;-0.21;70.45
75281;HTU21D;63874;47.230;39.620;2024-02-21T14:27:51;-0.25;70.26
75281;HTU21D;63874;47.230;39.620;2024-02-21T14:30:17;-0.27;70.46
75281;HTU21D;63874;47.230;39.620;2024-02-21T14:32:43;-0.28;70.81
75281;HTU21D;63874;47.230;39.620;2024-02-21T14:35:09;-0.34;70.67
75281;HTU21D;63874;47.230;39.620;2024-02-21T14:37:35;-0.36;71.00
75281;HTU21D;63874;47.230;39.620;2024-02-21T14:40:02;-0.39;71.00
75281;HTU21D;63874;47.230;39.620;2024-02-21T14:42:28;-0.41;70.79
75281;HTU21D;63874;47.230;39.620;2024-02-21T14:44:54;-0.39;71.58
75281;HTU21D;63874;47.230;39.620;2024-02-21T14:47:32;-0.43;71.34
75281;HTU21D;63874;47.230;39.620;2024-02-21T14:49:58;-0.46;71.53
75281;HTU21D;63874;47.230;39.620;2024-02-21T14:52:24;-0.44;71.91
75281;HTU21D;63874;47.230;39.620;2024-02-21T14:54:53;-0.45;72.16
75281;HTU21D;63874;47.230;39.620;2024-02-21T14:57:19;-0.50;71.92
75281;HTU21D;63874;47.230;39.620;2024-02-21T14:59:46;-0.49;71.96
75281;HTU21D;63874;47.230;39.620;2024-02-21T15:02:12;-0.49;71.80
75281;HTU21D;63874;47.230;39.620;2024-02-21T15:04:38;-0.46;72.19
75281;HTU21D;63874;47.230;39.620;2024-02-21T15:07:04;-0.45;71.94
75281;HTU21D;63874;47.230;39.620;2024-02-21T15:09:30;-0.45;72.19
75281;HTU21D;63874;47.230;39.620;2024-02-21T15:11:55;-0.46;71.72